createdAt,value
2018-02-07T00:01:23.773Z,15.00
2018-02-07T00:03:51.346Z,17.20
2018-02-07T00:06:20.149Z,15.53
2018-02-07T00:08:47.700Z,15.33
2018-02-07T00:11:15.264Z,14.80
2018-02-07T00:13:42.818Z,16.47
2018-02-07T00:16:11.188Z,16.83
2018-02-07T00:18:38.744Z,17.20
2018-02-07T00:21:06.518Z,19.23
2018-02-07T00:23:34.147Z,19.53
2018-02-07T00:26:01.668Z,18.50
2018-02-07T00:28:30.049Z,17.67
2018-02-07T00:30:57.618Z,17.97
2018-02-07T00:33:25.175Z,17.03
2018-02-07T00:35:52.740Z,18.73
2018-02-07T00:38:20.308Z,19.70
2018-02-07T00:40:47.850Z,20.03
2018-02-07T00:43:15.423Z,18.97
2018-02-07T00:45:42.966Z,19.97
2018-02-07T00:48:10.528Z,19.87
2018-02-07T00:50:38.837Z,20.43
2018-02-07T00:53:07.177Z,20.33
2018-02-07T00:55:34.737Z,20.33
2018-02-07T00:58:02.352Z,21.07
2018-02-07T01:00:29.904Z,22.40
2018-02-07T01:02:57.480Z,20.30
2018-02-07T01:05:25.804Z,21.77
2018-02-07T01:07:53.360Z,21.37
2018-02-07T01:10:21.710Z,19.90
2018-02-07T01:12:49.348Z,21.20
2018-02-07T01:15:16.891Z,18.33
2018-02-07T01:17:44.422Z,21.13
2018-02-07T01:20:11.985Z,20.67
2018-02-07T01:22:39.532Z,21.50
2018-02-07T01:25:07.101Z,21.57
2018-02-07T01:27:34.653Z,20.53
2018-02-07T01:30:02.993Z,22.67
2018-02-07T01:32:30.550Z,22.40
2018-02-07T01:34:58.122Z,22.30
2018-02-07T01:37:26.444Z,23.43
2018-02-07T01:39:54.124Z,21.90
2018-02-07T01:42:21.681Z,20.97
2018-02-07T01:44:49.239Z,20.73
2018-02-07T01:47:16.823Z,21.90
2018-02-07T01:49:44.368Z,21.60
2018-02-07T01:52:11.947Z,21.70
2018-02-07T01:54:39.505Z,21.60
2018-02-07T01:57:07.853Z,22.40
2018-02-07T01:59:35.408Z,22.67
2018-02-07T02:02:03.756Z,21.63
2018-02-07T02:04:31.300Z,21.63
2018-02-07T02:06:58.859Z,22.03
2018-02-07T02:09:26.580Z,21.50
2018-02-07T02:11:54.163Z,23.63
2018-02-07T02:14:21.707Z,21.03
2018-02-07T02:16:49.284Z,20.27
2018-02-07T02:19:16.840Z,21.93
2018-02-07T02:21:44.412Z,22.83
2018-02-07T02:24:11.964Z,22.77
2018-02-07T02:26:40.326Z,22.93
2018-02-07T02:29:07.879Z,22.80
2018-02-07T02:31:35.428Z,22.60
2018-02-07T02:34:03.773Z,22.60
2018-02-07T02:36:40.283Z,21.43
2018-02-07T02:39:08.220Z,23.43
2018-02-07T02:41:36.539Z,25.27
2018-02-07T02:44:04.114Z,25.60
2018-02-07T02:46:32.458Z,22.60
2018-02-07T02:49:00.029Z,24.20
2018-02-07T02:51:27.695Z,23.50
2018-02-07T02:53:55.268Z,23.00
2018-02-07T02:56:23.590Z,26.17
2018-02-07T02:58:51.163Z,25.50
2018-02-07T03:01:18.719Z,25.47
2018-02-07T03:03:46.292Z,22.53
2018-02-07T03:06:13.836Z,24.03
2018-02-07T03:08:41.401Z,24.33
2018-02-07T03:11:08.949Z,25.37
2018-02-07T03:13:36.520Z,24.83
2018-02-07T03:16:04.068Z,24.73
2018-02-07T03:18:31.632Z,23.43
2018-02-07T03:20:59.948Z,26.30
2018-02-07T03:23:27.556Z,23.87
2018-02-07T03:25:55.148Z,25.17
2018-02-07T03:28:22.697Z,26.10
2018-02-07T03:30:50.268Z,25.00
2018-02-07T03:33:18.581Z,25.07
2018-02-07T03:35:46.153Z,27.57
2018-02-07T03:38:14.464Z,25.53
2018-02-07T03:40:42.033Z,26.03
2018-02-07T03:43:10.348Z,24.30
2018-02-07T03:45:38.694Z,23.93
2018-02-07T03:48:06.252Z,25.87
2018-02-07T03:50:33.807Z,25.03
2018-02-07T03:53:02.124Z,25.70
2018-02-07T03:55:29.696Z,26.97
2018-02-07T03:57:58.036Z,25.77
2018-02-07T04:00:25.611Z,26.47
2018-02-07T04:02:53.164Z,24.67
2018-02-07T04:05:21.500Z,26.17
2018-02-07T04:07:49.058Z,25.43
2018-02-07T04:10:16.644Z,26.30
2018-02-07T04:12:44.963Z,27.03
2018-02-07T04:15:12.506Z,24.13
2018-02-07T04:17:40.074Z,24.73
2018-02-07T04:20:07.634Z,26.60
2018-02-07T04:22:35.205Z,26.00
2018-02-07T04:25:02.768Z,24.97
2018-02-07T04:27:31.106Z,28.47
2018-02-07T04:29:58.651Z,27.77
2018-02-07T04:32:26.983Z,27.40
2018-02-07T04:34:54.563Z,28.90
2018-02-07T04:37:22.136Z,27.30
2018-02-07T04:39:49.689Z,28.77
2018-02-07T04:42:17.249Z,28.27
2018-02-07T04:44:44.808Z,29.77
2018-02-07T04:47:12.366Z,29.50
2018-02-07T04:49:40.671Z,27.83
2018-02-07T04:52:08.243Z,28.73
2018-02-07T04:54:36.565Z,30.10
2018-02-07T04:57:04.137Z,30.30
2018-02-07T04:59:31.684Z,31.63
2018-02-07T05:01:59.258Z,36.80
2018-02-07T05:04:26.812Z,30.17
2018-02-07T05:06:54.371Z,28.97
2018-02-07T05:09:22.683Z,30.30
2018-02-07T05:11:50.253Z,29.67
2018-02-07T05:14:18.589Z,29.30
2018-02-07T05:16:46.176Z,26.83
2018-02-07T05:19:13.722Z,30.50
2018-02-07T05:21:42.050Z,29.57
2018-02-07T05:24:09.621Z,26.93
2018-02-07T05:26:37.168Z,27.87
2018-02-07T05:29:04.748Z,30.90
2018-02-07T05:31:32.304Z,31.60
2018-02-07T05:33:59.868Z,28.23
2018-02-07T05:36:27.431Z,28.57
2018-02-07T05:38:55.017Z,32.53
2018-02-07T05:41:22.565Z,30.03
2018-02-07T05:43:50.144Z,28.57
2018-02-07T05:46:17.693Z,29.90
2018-02-07T05:48:45.267Z,28.47
2018-02-07T05:51:12.812Z,28.97
2018-02-07T05:53:40.384Z,30.00
2018-02-07T05:56:07.941Z,28.30
2018-02-07T05:58:35.528Z,28.40
2018-02-07T06:01:03.096Z,29.30
2018-02-07T06:03:30.636Z,28.70
2018-02-07T06:05:58.964Z,29.27
2018-02-07T06:08:26.512Z,30.30
2018-02-07T06:10:54.096Z,28.63
2018-02-07T06:13:21.641Z,30.47
2018-02-07T06:15:49.220Z,30.13
2018-02-07T06:18:16.777Z,28.40
2018-02-07T06:20:44.344Z,31.00
2018-02-07T06:23:12.656Z,32.30
2018-02-07T06:25:40.988Z,31.70
2018-02-07T06:28:08.539Z,31.27
2018-02-07T06:30:36.872Z,29.40
2018-02-07T06:33:04.420Z,32.13
2018-02-07T06:35:32.764Z,30.80
2018-02-07T06:38:00.316Z,31.30
2018-02-07T06:40:27.924Z,31.87
2018-02-07T06:42:55.471Z,28.77
2018-02-07T06:45:23.812Z,32.10
2018-02-07T06:47:51.362Z,30.67
2018-02-07T06:50:19.672Z,31.17
2018-02-07T06:52:48.116Z,30.77
2018-02-07T06:55:15.668Z,28.50
2018-02-07T06:57:43.258Z,30.43
2018-02-07T07:00:10.818Z,31.20
2018-02-07T07:02:39.148Z,32.80
2018-02-07T07:05:06.911Z,31.63
2018-02-07T07:07:35.196Z,32.90
2018-02-07T07:10:03.547Z,29.73
2018-02-07T07:12:31.108Z,32.87
2018-02-07T07:14:58.680Z,34.33
2018-02-07T07:17:27.014Z,58.37
2018-02-07T07:19:54.562Z,40.40
2018-02-07T07:22:22.906Z,34.20
2018-02-07T07:24:50.470Z,33.97
2018-02-07T07:27:18.052Z,33.17
2018-02-07T07:29:45.587Z,31.00
2018-02-07T07:32:13.236Z,31.73
2018-02-07T07:34:40.780Z,30.80
2018-02-07T07:37:09.120Z,31.40
2018-02-07T07:39:36.669Z,31.20
2018-02-07T07:42:05.116Z,34.50
2018-02-07T07:44:32.665Z,32.13
2018-02-07T07:47:00.978Z,32.80
2018-02-07T07:49:28.593Z,32.30
2018-02-07T07:51:56.134Z,30.30
2018-02-07T07:54:24.468Z,29.00
2018-02-07T07:56:52.012Z,28.97
2018-02-07T07:59:20.338Z,31.27
2018-02-07T08:01:47.880Z,30.70
2018-02-07T08:04:15.449Z,30.97
2018-02-07T08:06:43.000Z,32.57
2018-02-07T08:09:10.568Z,31.90
2018-02-07T08:11:38.114Z,31.47
2018-02-07T08:14:05.685Z,32.57
2018-02-07T08:16:33.239Z,33.37
2018-02-07T08:19:00.799Z,31.50
2018-02-07T08:21:29.116Z,33.10
2018-02-07T08:23:56.708Z,32.53
2018-02-07T08:26:24.258Z,32.20
2018-02-07T08:28:52.569Z,36.10
2018-02-07T08:31:20.895Z,34.87
2018-02-07T08:33:48.475Z,33.70
2018-02-07T08:36:16.062Z,33.53
2018-02-07T08:38:43.609Z,35.60
2018-02-07T08:41:11.941Z,35.57
2018-02-07T08:43:39.493Z,34.80
2018-02-07T08:46:07.860Z,36.17
2018-02-07T08:48:36.206Z,35.90
2018-02-07T08:51:05.248Z,33.93
2018-02-07T08:53:32.813Z,34.17
2018-02-07T08:56:00.376Z,34.70
2018-02-07T08:58:27.920Z,34.80
2018-02-07T09:00:55.488Z,34.80
2018-02-07T09:03:23.040Z,31.03
2018-02-07T09:05:50.605Z,34.10
2018-02-07T09:08:18.181Z,35.60
2018-02-07T09:10:45.749Z,35.27
2018-02-07T09:13:13.313Z,33.40
2018-02-07T09:15:40.864Z,36.17
2018-02-07T09:18:09.193Z,34.93
2018-02-07T09:20:36.740Z,36.93
2018-02-07T09:23:05.075Z,35.23
2018-02-07T09:25:32.627Z,33.60
2018-02-07T09:28:00.976Z,32.87
2018-02-07T09:30:28.532Z,34.33
2018-02-07T09:32:56.100Z,35.80
2018-02-07T09:35:24.427Z,36.47
2018-02-07T09:37:52.009Z,35.33
2018-02-07T09:40:19.565Z,34.30
2018-02-07T09:42:47.908Z,35.43
2018-02-07T09:45:15.450Z,36.73
2018-02-07T09:47:43.022Z,40.50
2018-02-07T09:50:10.563Z,40.53
2018-02-07T09:52:38.143Z,37.77
2018-02-07T09:55:05.693Z,37.63
2018-02-07T09:57:34.039Z,35.90
2018-02-07T10:00:04.633Z,38.80
2018-02-07T10:02:32.205Z,38.07
2018-02-07T10:04:59.752Z,35.93
2018-02-07T10:07:27.501Z,35.57
2018-02-07T10:09:55.081Z,36.73
2018-02-07T10:12:22.632Z,37.03
2018-02-07T10:14:50.236Z,37.00
2018-02-07T10:17:17.820Z,37.60
2018-02-07T10:19:45.383Z,40.47
2018-02-07T10:22:12.940Z,38.10
2018-02-07T10:24:40.505Z,38.00
2018-02-07T10:27:08.823Z,34.60
2018-02-07T10:29:36.380Z,36.70
2018-02-07T10:32:04.873Z,36.70
2018-02-07T10:34:32.454Z,39.20
2018-02-07T10:37:00.009Z,38.67
2018-02-07T10:39:27.586Z,40.57
2018-02-07T10:41:55.130Z,36.90
2018-02-07T10:44:23.467Z,39.40
2018-02-07T10:46:52.742Z,34.60
2018-02-07T10:49:21.080Z,36.40
2018-02-07T10:51:48.673Z,35.77
2018-02-07T10:54:16.246Z,37.07
2018-02-07T10:56:43.800Z,38.03
2018-02-07T10:59:12.540Z,34.60
2018-02-07T11:01:40.123Z,39.30
2018-02-07T11:04:14.603Z,39.57
2018-02-07T11:06:42.173Z,36.77
2018-02-07T11:09:09.893Z,36.90
2018-02-07T11:11:38.291Z,38.30
2018-02-07T11:14:05.832Z,39.97
2018-02-07T11:16:33.429Z,36.87
2018-02-07T11:19:02.401Z,37.00
2018-02-07T11:21:29.977Z,37.30
2018-02-07T11:23:57.507Z,37.13
2018-02-07T11:26:25.073Z,35.37
2018-02-07T11:28:52.618Z,37.57
2018-02-07T11:31:20.193Z,36.30
2018-02-07T11:33:47.732Z,37.27
2018-02-07T11:36:15.504Z,34.57
2018-02-07T11:38:43.814Z,36.73
2018-02-07T11:41:12.363Z,34.47
2018-02-07T11:43:40.731Z,34.60
2018-02-07T11:46:08.313Z,36.00
2018-02-07T11:48:36.781Z,36.50
2018-02-07T11:51:04.323Z,36.23
2018-02-07T11:53:31.888Z,37.57
2018-02-07T11:55:59.524Z,36.50
2018-02-07T11:58:27.980Z,38.10
2018-02-07T12:00:55.527Z,35.00
2018-02-07T12:03:23.161Z,35.47
2018-02-07T12:05:51.527Z,38.00
2018-02-07T12:08:19.941Z,37.23
2018-02-07T12:10:48.244Z,37.53
2018-02-07T12:13:16.572Z,38.03
2018-02-07T12:15:44.112Z,37.13
2018-02-07T12:18:11.676Z,37.20
2018-02-07T12:20:40.554Z,36.97
2018-02-07T12:23:08.113Z,36.23
2018-02-07T12:25:36.440Z,35.60
2018-02-07T12:28:04.030Z,37.30
2018-02-07T12:30:32.490Z,37.53
2018-02-07T12:33:00.805Z,35.50
2018-02-07T12:35:28.384Z,37.00
2018-02-07T12:37:56.687Z,32.67
2018-02-07T12:40:25.020Z,36.33
2018-02-07T12:42:52.564Z,35.40
2018-02-07T12:45:21.706Z,36.63
2018-02-07T12:47:49.264Z,37.40
2018-02-07T12:50:17.733Z,32.33
2018-02-07T12:52:45.271Z,33.23
2018-02-07T12:55:13.705Z,32.30
2018-02-07T12:57:41.261Z,30.60
2018-02-07T13:00:08.832Z,33.37
2018-02-07T13:02:37.150Z,29.53
2018-02-07T13:05:04.751Z,31.17
2018-02-07T13:07:32.299Z,33.00
2018-02-07T13:10:00.648Z,36.57
2018-02-07T13:12:28.237Z,37.77
2018-02-07T13:14:55.780Z,38.73
2018-02-07T13:17:24.108Z,37.97
2018-02-07T13:19:51.644Z,36.90
2018-02-07T13:22:19.208Z,40.10
2018-02-07T13:24:47.210Z,38.53
2018-02-07T13:27:16.601Z,39.90
2018-02-07T13:29:44.209Z,40.57
2018-02-07T13:32:11.778Z,40.07
2018-02-07T13:34:40.273Z,38.80
2018-02-07T13:37:07.869Z,38.40
2018-02-07T13:39:35.426Z,39.90
2018-02-07T13:42:02.995Z,36.37
2018-02-07T13:44:31.299Z,36.40
2018-02-07T13:46:59.628Z,37.30
2018-02-07T13:49:27.173Z,31.07
2018-02-07T13:51:54.744Z,25.43
2018-02-07T13:54:22.293Z,26.87
2018-02-07T13:56:49.966Z,28.70
2018-02-07T13:59:17.512Z,39.97
2018-02-07T14:01:45.075Z,37.67
2018-02-07T14:04:12.639Z,39.50
2018-02-07T14:06:40.186Z,39.73
2018-02-07T14:09:07.749Z,40.40
2018-02-07T14:11:35.306Z,42.83
2018-02-07T14:14:02.873Z,39.80
2018-02-07T14:16:30.436Z,43.47
2018-02-07T14:18:58.334Z,43.20
2018-02-07T14:21:25.875Z,41.70
2018-02-07T14:23:53.454Z,43.10
2018-02-07T14:26:21.003Z,43.30
2018-02-07T14:28:48.578Z,44.30
2018-02-07T14:31:16.121Z,47.10
2018-02-07T14:33:44.451Z,47.10
2018-02-07T14:36:12.001Z,44.20
2018-02-07T14:38:40.337Z,43.10
2018-02-07T14:41:07.888Z,46.60
2018-02-07T14:43:36.230Z,45.40
2018-02-07T14:46:03.820Z,46.70
2018-02-07T14:48:31.389Z,44.00
2018-02-07T14:50:58.944Z,46.10
2018-02-07T14:53:27.388Z,42.47
2018-02-07T14:55:54.931Z,44.57
2018-02-07T14:58:23.235Z,45.67
2018-02-07T15:00:51.567Z,47.90
2018-02-07T15:03:19.130Z,48.07
2018-02-07T15:05:47.469Z,43.57
2018-02-07T15:08:15.046Z,46.53
2018-02-07T15:10:45.927Z,46.43
2018-02-07T15:13:13.489Z,43.77
2018-02-07T15:15:41.064Z,45.87
2018-02-07T15:18:08.618Z,47.50
2018-02-07T15:20:36.951Z,44.97
2018-02-07T15:23:04.516Z,48.67
2018-02-07T15:25:32.847Z,48.97
2018-02-07T15:28:00.397Z,46.07
2018-02-07T15:30:28.732Z,47.30
2018-02-07T15:32:56.280Z,48.10
2018-02-07T15:35:24.611Z,47.00
2018-02-07T15:37:52.169Z,49.87
2018-02-07T15:40:20.481Z,49.07
2018-02-07T15:42:48.821Z,48.77
2018-02-07T15:45:16.378Z,48.47
2018-02-07T15:47:43.957Z,48.43
2018-02-07T15:50:11.513Z,49.63
2018-02-07T15:52:39.079Z,50.63
2018-02-07T15:55:06.632Z,48.00
2018-02-07T15:57:34.228Z,46.57
2018-02-07T16:00:01.782Z,47.80
2018-02-07T16:02:29.349Z,50.20
2018-02-07T16:04:57.664Z,46.90
2018-02-07T16:07:25.247Z,49.63
2018-02-07T16:09:52.806Z,51.07
2018-02-07T16:12:20.392Z,50.03
2018-02-07T16:14:47.939Z,54.90
2018-02-07T16:17:15.538Z,53.87
2018-02-07T16:19:43.097Z,57.10
2018-02-07T16:22:10.647Z,53.80
2018-02-07T16:24:38.211Z,54.70
2018-02-07T16:27:05.786Z,53.73
2018-02-07T16:29:33.361Z,53.10
2018-02-07T16:32:00.910Z,51.97
2018-02-07T16:34:28.485Z,48.97
2018-02-07T16:36:56.036Z,51.60
2018-02-07T16:39:24.387Z,52.73
2018-02-07T16:41:51.941Z,52.60
2018-02-07T16:44:19.507Z,58.50
2018-02-07T16:46:47.836Z,52.97
2018-02-07T16:49:15.414Z,49.67
2018-02-07T16:51:42.965Z,51.80
2018-02-07T16:54:10.532Z,49.03
2018-02-07T16:56:38.087Z,46.70
2018-02-07T16:59:05.665Z,50.00
2018-02-07T17:01:33.250Z,52.20
2018-02-07T17:04:00.812Z,57.37
2018-02-07T17:06:29.129Z,53.37
2018-02-07T17:08:56.715Z,54.00
2018-02-07T17:11:24.273Z,51.50
2018-02-07T17:13:52.586Z,52.00
2018-02-07T17:16:20.159Z,52.97
2018-02-07T17:18:48.495Z,52.27
2018-02-07T17:21:16.080Z,54.33
2018-02-07T17:23:43.638Z,55.70
2018-02-07T17:26:11.996Z,51.50
2018-02-07T17:28:39.552Z,53.23
2018-02-07T17:31:07.128Z,50.87
2018-02-07T17:33:34.724Z,53.70
2018-02-07T17:36:02.313Z,56.90
2018-02-07T17:38:29.872Z,53.13
2018-02-07T17:40:57.457Z,55.43
2018-02-07T17:43:25.021Z,53.90
2018-02-07T17:45:53.635Z,52.40
2018-02-07T17:48:21.973Z,52.10
2018-02-07T17:50:49.531Z,52.97
2018-02-07T17:53:17.891Z,52.07
2018-02-07T17:55:45.459Z,54.47
2018-02-07T17:58:13.040Z,52.37
2018-02-07T18:00:40.596Z,54.90
2018-02-07T18:03:08.181Z,51.47
2018-02-07T18:05:35.745Z,49.60
2018-02-07T18:08:04.109Z,55.50
2018-02-07T18:10:31.658Z,54.57
2018-02-07T18:12:59.223Z,52.17
2018-02-07T18:15:26.766Z,49.47
2018-02-07T18:17:54.380Z,48.37
2018-02-07T18:20:22.708Z,53.83
2018-02-07T18:22:50.273Z,54.03
2018-02-07T18:25:18.588Z,51.50
2018-02-07T18:27:46.164Z,61.50
2018-02-07T18:30:14.480Z,61.83
2018-02-07T18:32:42.043Z,62.37
2018-02-07T18:35:10.360Z,59.30
2018-02-07T18:37:37.946Z,57.47
2018-02-07T18:40:06.311Z,58.27
2018-02-07T18:42:33.905Z,60.97
2018-02-07T18:45:02.215Z,64.03
2018-02-07T18:47:30.554Z,64.47
2018-02-07T18:49:58.128Z,67.33
2018-02-07T18:52:25.682Z,65.00
2018-02-07T18:54:54.021Z,60.00
2018-02-07T18:57:21.572Z,59.10
2018-02-07T18:59:49.916Z,53.70
2018-02-07T19:02:17.493Z,53.10
2018-02-07T19:04:45.064Z,49.10
2018-02-07T19:07:12.620Z,52.50
2018-02-07T19:09:40.188Z,51.03
2018-02-07T19:12:07.758Z,54.10
2018-02-07T19:14:35.481Z,49.97
2018-02-07T19:17:03.821Z,52.30
2018-02-07T19:19:31.390Z,51.40
2018-02-07T19:21:58.930Z,50.80
2018-02-07T19:24:26.504Z,50.60
2018-02-07T19:26:54.076Z,50.20
2018-02-07T19:29:21.652Z,50.33
2018-02-07T19:31:49.225Z,50.70
2018-02-07T19:34:16.912Z,54.67
2018-02-07T19:36:44.466Z,52.53
2018-02-07T19:39:12.783Z,55.93
2018-02-07T19:41:40.365Z,55.40
2018-02-07T19:44:07.922Z,53.30
2018-02-07T19:46:35.501Z,49.97
2018-02-07T19:49:03.070Z,51.77
2018-02-07T19:51:30.643Z,47.10
2018-02-07T19:53:58.182Z,52.00
2018-02-07T19:56:25.752Z,48.93
2018-02-07T19:58:54.081Z,55.27
2018-02-07T20:01:21.648Z,51.93
2018-02-07T20:03:49.969Z,45.93
2018-02-07T20:06:17.556Z,47.97
2018-02-07T20:08:45.109Z,50.90
2018-02-07T20:11:13.451Z,52.40
2018-02-07T20:13:40.995Z,50.23
2018-02-07T20:16:09.344Z,50.30
2018-02-07T20:18:36.891Z,49.10
2018-02-07T20:21:04.480Z,50.17
2018-02-07T20:23:32.032Z,48.13
2018-02-07T20:25:59.608Z,55.33
2018-02-07T20:28:27.151Z,48.80
2018-02-07T20:30:54.744Z,46.77
2018-02-07T20:33:22.283Z,43.37
2018-02-07T20:35:50.617Z,42.67
2018-02-07T20:38:18.274Z,44.20
2018-02-07T20:40:46.596Z,41.33
2018-02-07T20:43:14.173Z,42.87
2018-02-07T20:45:41.732Z,41.80
2018-02-07T20:48:09.327Z,42.23
2018-02-07T20:50:37.652Z,42.53
2018-02-07T20:53:05.232Z,42.97
2018-02-07T20:55:32.786Z,42.37
2018-02-07T20:58:00.394Z,42.77
2018-02-07T21:00:27.949Z,43.03
2018-02-07T21:02:55.684Z,42.93
2018-02-07T21:05:23.227Z,49.20
2018-02-07T21:07:50.792Z,45.80
2018-02-07T21:10:18.348Z,42.90
2018-02-07T21:12:45.920Z,42.67
2018-02-07T21:15:13.489Z,48.77
2018-02-07T21:17:41.049Z,43.17
2018-02-07T21:20:09.448Z,43.10
2018-02-07T21:22:37.001Z,39.07
2018-02-07T21:25:04.583Z,37.10
2018-02-07T21:27:32.136Z,37.00
2018-02-07T21:29:59.694Z,37.57
2018-02-07T21:32:28.008Z,37.13
2018-02-07T21:34:55.694Z,34.23
2018-02-07T21:37:24.007Z,35.10
2018-02-07T21:39:51.571Z,34.10
2018-02-07T21:42:19.125Z,36.60
2018-02-07T21:44:46.706Z,34.00
2018-02-07T21:47:14.512Z,36.37
2018-02-07T21:49:42.465Z,36.40
2018-02-07T21:52:10.530Z,33.70
2018-02-07T21:54:38.423Z,35.93
2018-02-07T21:57:06.153Z,34.27
2018-02-07T21:59:34.640Z,36.57
2018-02-07T22:02:02.598Z,36.27
2018-02-07T22:04:31.076Z,33.37
2018-02-07T22:06:58.686Z,32.60
2018-02-07T22:09:26.267Z,31.90
2018-02-07T22:11:53.838Z,33.67
2018-02-07T22:14:21.408Z,33.83
2018-02-07T22:16:48.992Z,37.40
2018-02-07T22:19:16.561Z,33.63
2018-02-07T22:21:44.157Z,33.60
2018-02-07T22:24:11.726Z,35.00
2018-02-07T22:26:39.366Z,34.03
2018-02-07T22:29:06.932Z,37.83
2018-02-07T22:31:34.881Z,33.90
2018-02-07T22:34:02.596Z,36.00
2018-02-07T22:36:30.916Z,34.97
2018-02-07T22:38:58.482Z,32.40
2018-02-07T22:41:26.819Z,34.27
2018-02-07T22:43:54.867Z,34.60
2018-02-07T22:46:22.464Z,35.33
2018-02-07T22:48:50.011Z,32.43
2018-02-07T22:51:18.340Z,35.37
2018-02-07T22:53:45.892Z,33.90
2018-02-07T22:56:14.247Z,32.37
2018-02-07T22:58:41.789Z,34.00
2018-02-07T23:01:10.108Z,32.60
2018-02-07T23:03:37.699Z,36.60
2018-02-07T23:06:05.253Z,37.20
2018-02-07T23:08:32.825Z,34.97
2018-02-07T23:11:00.417Z,33.87
2018-02-07T23:13:27.993Z,36.83
2018-02-07T23:15:55.557Z,37.67
2018-02-07T23:18:23.161Z,33.63
2018-02-07T23:20:50.716Z,33.10
2018-02-07T23:23:18.290Z,33.07
2018-02-07T23:25:45.837Z,33.20
2018-02-07T23:28:13.410Z,35.37
2018-02-07T23:30:40.951Z,36.47
2018-02-07T23:33:08.511Z,36.20
2018-02-07T23:35:36.837Z,35.63
2018-02-07T23:38:04.408Z,35.30
2018-02-07T23:40:31.967Z,36.27
2018-02-07T23:43:00.357Z,37.90
2018-02-07T23:45:27.908Z,34.70
2018-02-07T23:47:55.473Z,33.67
2018-02-07T23:50:23.020Z,37.23
2018-02-07T23:52:50.640Z,38.37
2018-02-07T23:55:18.198Z,39.20
2018-02-07T23:57:46.516Z,37.83
